sensor_id;sensor_type;location;lat;lon;timestamp;pressure;altitude;pressure_sealevel;temperature;humidity
84878;BME280;75140;47.754;8.840;2024-03-06T00:02:05;96672.34;;;6.12;95.40
84878;BME280;75140;47.754;8.840;2024-03-06T00:04:30;96675.50;;;6.16;94.34
84878;BME280;75140;47.754;8.840;2024-03-06T00:06:56;96680.75;;;6.16;94.75
84878;BME280;75140;47.754;8.840;2024-03-06T00:09:23;96676.78;;;6.12;94.08
84878;BME280;75140;47.754;8.840;2024-03-06T00:11:48;96682.75;;;6.22;93.69
84878;BME280;75140;47.754;8.840;2024-03-06T00:14:16;96677.28;;;6.15;94.82
84878;BME280;75140;47.754;8.840;2024-03-06T00:16:42;96684.75;;;6.20;94.50
84878;BME280;75140;47.754;8.840;2024-03-06T00:19:08;96690.31;;;6.17;94.53
84878;BME280;75140;47.754;8.840;2024-03-06T00:21:33;96692.78;;;6.18;93.41
84878;BME280;75140;47.754;8.840;2024-03-06T00:23:59;96699.03;;;6.09;95.14
84878;BME280;75140;47.754;8.840;2024-03-06T00:26:24;96695.38;;;6.10;95.32
84878;BME280;75140;47.754;8.840;2024-03-06T00:28:49;96697.69;;;6.13;93.85
84878;BME280;75140;47.754;8.840;2024-03-06T00:31:15;96703.72;;;5.97;93.94
84878;BME280;75140;47.754;8.840;2024-03-06T00:33:40;96710.28;;;5.93;93.63
84878;BME280;75140;47.754;8.840;2024-03-06T00:36:06;96708.53;;;6.02;94.41
84878;BME280;75140;47.754;8.840;2024-03-06T00:38:32;96710.31;;;6.01;94.56
84878;BME280;75140;47.754;8.840;2024-03-06T00:40:57;96708.31;;;5.95;94.06
84878;BME280;75140;47.754;8.840;2024-03-06T00:43:23;96709.75;;;5.90;93.78
84878;BME280;75140;47.754;8.840;2024-03-06T00:45:48;96699.88;;;5.84;93.72
84878;BME280;75140;47.754;8.840;2024-03-06T00:48:13;96706.44;;;5.88;93.82
84878;BME280;75140;47.754;8.840;2024-03-06T00:50:39;96699.16;;;5.82;95.06
84878;BME280;75140;47.754;8.840;2024-03-06T00:53:06;96704.28;;;5.83;94.85
84878;BME280;75140;47.754;8.840;2024-03-06T00:55:31;96702.06;;;5.79;94.61
84878;BME280;75140;47.754;8.840;2024-03-06T00:57:56;96703.31;;;5.84;94.35
84878;BME280;75140;47.754;8.840;2024-03-06T01:00:22;96708.13;;;5.89;93.63
84878;BME280;75140;47.754;8.840;2024-03-06T01:02:47;96712.75;;;5.95;94.62
84878;BME280;75140;47.754;8.840;2024-03-06T01:05:13;96707.44;;;5.69;94.74
84878;BME280;75140;47.754;8.840;2024-03-06T01:07:38;96712.75;;;5.77;94.59
84878;BME280;75140;47.754;8.840;2024-03-06T01:10:08;96720.97;;;5.74;94.92
84878;BME280;75140;47.754;8.840;2024-03-06T01:12:33;96725.13;;;5.77;94.07
84878;BME280;75140;47.754;8.840;2024-03-06T01:14:59;96720.78;;;5.68;94.12
84878;BME280;75140;47.754;8.840;2024-03-06T01:17:24;96722.41;;;5.69;93.76
84878;BME280;75140;47.754;8.840;2024-03-06T01:19:50;96716.69;;;5.73;93.33
84878;BME280;75140;47.754;8.840;2024-03-06T01:22:15;96720.16;;;5.74;92.89
84878;BME280;75140;47.754;8.840;2024-03-06T01:24:41;96716.09;;;5.62;94.09
84878;BME280;75140;47.754;8.840;2024-03-06T01:27:06;96729.56;;;5.59;93.71
84878;BME280;75140;47.754;8.840;2024-03-06T01:29:32;96725.19;;;5.67;94.31
84878;BME280;75140;47.754;8.840;2024-03-06T01:31:58;96732.53;;;5.56;93.71
84878;BME280;75140;47.754;8.840;2024-03-06T01:34:23;96729.06;;;5.55;94.29
84878;BME280;75140;47.754;8.840;2024-03-06T01:36:48;96732.22;;;5.59;94.03
84878;BME280;75140;47.754;8.840;2024-03-06T01:39:14;96732.53;;;5.56;95.10
84878;BME280;75140;47.754;8.840;2024-03-06T01:41:49;96725.75;;;5.53;94.82
84878;BME280;75140;47.754;8.840;2024-03-06T01:44:15;96734.47;;;5.54;94.72
84878;BME280;75140;47.754;8.840;2024-03-06T01:46:41;96733.94;;;5.50;95.46
84878;BME280;75140;47.754;8.840;2024-03-06T01:49:07;96730.19;;;5.53;95.47
84878;BME280;75140;47.754;8.840;2024-03-06T01:51:33;96729.16;;;5.46;95.99
84878;BME280;75140;47.754;8.840;2024-03-06T01:54:00;96723.94;;;5.54;95.34
84878;BME280;75140;47.754;8.840;2024-03-06T01:56:27;96723.63;;;5.57;95.30
84878;BME280;75140;47.754;8.840;2024-03-06T01:58:53;96715.88;;;5.55;95.16
84878;BME280;75140;47.754;8.840;2024-03-06T02:01:19;96720.47;;;5.53;95.88
84878;BME280;75140;47.754;8.840;2024-03-06T02:03:47;96719.47;;;5.46;95.12
84878;BME280;75140;47.754;8.840;2024-03-06T02:06:14;96714.34;;;5.45;95.86
84878;BME280;75140;47.754;8.840;2024-03-06T02:08:40;96714.34;;;5.45;96.03
84878;BME280;75140;47.754;8.840;2024-03-06T02:11:05;96721.94;;;5.48;96.47
84878;BME280;75140;47.754;8.840;2024-03-06T02:13:32;96723.81;;;5.38;96.78
84878;BME280;75140;47.754;8.840;2024-03-06T02:15:58;96729.09;;;5.38;96.03
84878;BME280;75140;47.754;8.840;2024-03-06T02:18:23;96724.09;;;5.35;96.41
84878;BME280;75140;47.754;8.840;2024-03-06T02:20:49;96721.03;;;5.39;96.20
84878;BME280;75140;47.754;8.840;2024-03-06T02:23:16;96717.25;;;5.42;96.13
84878;BME280;75140;47.754;8.840;2024-03-06T02:25:44;96723.56;;;5.49;95.93
84878;BME280;75140;47.754;8.840;2024-03-06T02:28:11;96721.03;;;5.39;95.65
84878;BME280;75140;47.754;8.840;2024-03-06T02:30:37;96718.84;;;5.35;95.42
84878;BME280;75140;47.754;8.840;2024-03-06T02:33:03;96721.78;;;5.32;96.33
84878;BME280;75140;47.754;8.840;2024-03-06T02:35:37;96725.09;;;5.34;95.98
84878;BME280;75140;47.754;8.840;2024-03-06T02:38:05;96719.22;;;5.40;95.59
84878;BME280;75140;47.754;8.840;2024-03-06T02:40:31;96721.03;;;5.39;95.53
84878;BME280;75140;47.754;8.840;2024-03-06T02:42:56;96719.38;;;5.38;95.66
84878;BME280;75140;47.754;8.840;2024-03-06T02:45:22;96722.78;;;5.31;95.50
84878;BME280;75140;47.754;8.840;2024-03-06T02:47:47;96735.47;;;5.35;95.73
84878;BME280;75140;47.754;8.840;2024-03-06T02:50:13;96735.31;;;5.37;95.75
84878;BME280;75140;47.754;8.840;2024-03-06T02:52:39;96735.25;;;5.29;95.42
84878;BME280;75140;47.754;8.840;2024-03-06T02:55:05;96736.84;;;5.39;95.59
84878;BME280;75140;47.754;8.840;2024-03-06T02:57:30;96736.63;;;5.33;95.79
84878;BME280;75140;47.754;8.840;2024-03-06T02:59:56;96738.25;;;5.34;96.05
84878;BME280;75140;47.754;8.840;2024-03-06T03:02:22;96735.94;;;5.31;95.13
84878;BME280;75140;47.754;8.840;2024-03-06T03:04:48;96744.41;;;5.25;96.39
84878;BME280;75140;47.754;8.840;2024-03-06T03:07:14;96740.81;;;5.26;96.27
84878;BME280;75140;47.754;8.840;2024-03-06T03:09:39;96745.25;;;5.25;96.24
84878;BME280;75140;47.754;8.840;2024-03-06T03:12:05;96747.41;;;5.30;96.58
84878;BME280;75140;47.754;8.840;2024-03-06T03:14:30;96746.88;;;5.26;96.38
84878;BME280;75140;47.754;8.840;2024-03-06T03:16:56;96740.28;;;5.22;96.49
84878;BME280;75140;47.754;8.840;2024-03-06T03:19:22;96741.34;;;5.29;95.79
84878;BME280;75140;47.754;8.840;2024-03-06T03:21:47;96746.16;;;5.34;96.16
84878;BME280;75140;47.754;8.840;2024-03-06T03:24:12;96739.25;;;5.33;96.08
84878;BME280;75140;47.754;8.840;2024-03-06T03:26:38;96745.63;;;5.30;95.92
84878;BME280;75140;47.754;8.840;2024-03-06T03:29:04;96747.19;;;5.23;96.51
84878;BME280;75140;47.754;8.840;2024-03-06T03:31:30;96737.50;;;5.24;96.80
84878;BME280;75140;47.754;8.840;2024-03-06T03:33:56;96741.78;;;5.25;96.72
84878;BME280;75140;47.754;8.840;2024-03-06T03:36:21;96741.94;;;5.23;96.67
84878;BME280;75140;47.754;8.840;2024-03-06T03:38:46;96750.97;;;5.21;97.12
84878;BME280;75140;47.754;8.840;2024-03-06T03:41:12;96745.41;;;5.24;96.15
84878;BME280;75140;47.754;8.840;2024-03-06T03:43:39;96750.03;;;5.30;96.32
84878;BME280;75140;47.754;8.840;2024-03-06T03:46:04;96747.72;;;5.27;95.95
84878;BME280;75140;47.754;8.840;2024-03-06T03:48:31;96762.97;;;5.23;96.55
84878;BME280;75140;47.754;8.840;2024-03-06T03:50:56;96755.53;;;5.19;96.52
84878;BME280;75140;47.754;8.840;2024-03-06T03:53:22;96758.84;;;5.21;95.74
84878;BME280;75140;47.754;8.840;2024-03-06T03:55:47;96755.69;;;5.17;96.11
84878;BME280;75140;47.754;8.840;2024-03-06T03:58:13;96762.28;;;5.21;96.14
84878;BME280;75140;47.754;8.840;2024-03-06T04:00:38;96765.47;;;5.25;96.19
84878;BME280;75140;47.754;8.840;2024-03-06T04:03:03;96770.94;;;5.14;95.81
84878;BME280;75140;47.754;8.840;2024-03-06T04:05:29;96764.84;;;5.13;96.16
84878;BME280;75140;47.754;8.840;2024-03-06T04:07:54;96767.63;;;5.12;96.34
84878;BME280;75140;47.754;8.840;2024-03-06T04:10:20;96766.41;;;5.06;96.71
84878;BME280;75140;47.754;8.840;2024-03-06T04:12:46;96760.47;;;5.04;97.04
84878;BME280;75140;47.754;8.840;2024-03-06T04:15:11;96769.59;;;5.10;96.31
84878;BME280;75140;47.754;8.840;2024-03-06T04:17:36;96775.53;;;5.12;96.08
84878;BME280;75140;47.754;8.840;2024-03-06T04:20:02;96776.59;;;5.19;96.01
84878;BME280;75140;47.754;8.840;2024-03-06T04:22:28;96779.69;;;5.14;95.87
84878;BME280;75140;47.754;8.840;2024-03-06T04:24:54;96780.19;;;5.18;95.16
84878;BME280;75140;47.754;8.840;2024-03-06T04:27:21;96788.38;;;5.15;95.58
84878;BME280;75140;47.754;8.840;2024-03-06T04:29:46;96794.63;;;5.14;96.04
84878;BME280;75140;47.754;8.840;2024-03-06T04:32:12;96793.56;;;5.07;96.58
84878;BME280;75140;47.754;8.840;2024-03-06T04:34:37;96797.19;;;5.06;95.20
84878;BME280;75140;47.754;8.840;2024-03-06T04:37:02;96789.88;;;5.00;96.20
84878;BME280;75140;47.754;8.840;2024-03-06T04:39:28;96794.13;;;5.01;96.57
84878;BME280;75140;47.754;8.840;2024-03-06T04:41:53;96789.19;;;4.98;95.66
84878;BME280;75140;47.754;8.840;2024-03-06T04:44:18;96790.69;;;5.00;95.71
84878;BME280;75140;47.754;8.840;2024-03-06T04:46:44;96789.47;;;4.95;95.73
84878;BME280;75140;47.754;8.840;2024-03-06T04:49:09;96796.16;;;4.89;95.89
84878;BME280;75140;47.754;8.840;2024-03-06T04:51:34;96798.94;;;4.87;95.61
84878;BME280;75140;47.754;8.840;2024-03-06T04:54:00;96801.78;;;4.94;95.63
84878;BME280;75140;47.754;8.840;2024-03-06T04:56:25;96799.69;;;4.98;95.94
84878;BME280;75140;47.754;8.840;2024-03-06T04:58:51;96803.47;;;4.95;96.20
84878;BME280;75140;47.754;8.840;2024-03-06T05:01:17;96805.56;;;4.92;95.83
84878;BME280;75140;47.754;8.840;2024-03-06T05:03:43;96806.09;;;4.95;95.53
84878;BME280;75140;47.754;8.840;2024-03-06T05:06:08;96810.53;;;4.95;96.47
84878;BME280;75140;47.754;8.840;2024-03-06T05:08:33;96810.59;;;4.85;95.84
84878;BME280;75140;47.754;8.840;2024-03-06T05:11:00;96819.13;;;4.87;97.25
84878;BME280;75140;47.754;8.840;2024-03-06T05:13:26;96809.97;;;4.91;97.03
84878;BME280;75140;47.754;8.840;2024-03-06T05:15:52;96809.50;;;4.78;97.90
84878;BME280;75140;47.754;8.840;2024-03-06T05:18:19;96811.69;;;4.82;96.31
84878;BME280;75140;47.754;8.840;2024-03-06T05:20:51;96815.44;;;4.80;96.56
84878;BME280;75140;47.754;8.840;2024-03-06T05:23:17;96823.28;;;4.89;96.63
84878;BME280;75140;47.754;8.840;2024-03-06T05:25:43;96827.75;;;4.79;97.27
84878;BME280;75140;47.754;8.840;2024-03-06T05:28:08;96835.25;;;4.74;97.21
84878;BME280;75140;47.754;8.840;2024-03-06T05:30:33;96828.06;;;4.76;97.53
84878;BME280;75140;47.754;8.840;2024-03-06T05:32:59;96828.72;;;4.78;96.72
84878;BME280;75140;47.754;8.840;2024-03-06T05:35:24;96830.00;;;4.74;96.25
84878;BME280;75140;47.754;8.840;2024-03-06T05:37:50;96831.50;;;4.77;96.72
84878;BME280;75140;47.754;8.840;2024-03-06T05:40:15;96833.88;;;4.70;96.58
84878;BME280;75140;47.754;8.840;2024-03-06T05:42:41;96831.69;;;4.66;96.96
84878;BME280;75140;47.754;8.840;2024-03-06T05:45:07;96828.13;;;4.57;96.95
84878;BME280;75140;47.754;8.840;2024-03-06T05:47:36;96835.97;;;4.67;97.39
84878;BME280;75140;47.754;8.840;2024-03-06T05:50:02;96835.28;;;4.65;97.07
84878;BME280;75140;47.754;8.840;2024-03-06T05:52:32;96843.16;;;4.65;96.76
84878;BME280;75140;47.754;8.840;2024-03-06T05:54:59;96844.69;;;4.67;96.62
84878;BME280;75140;47.754;8.840;2024-03-06T05:57:25;96844.41;;;4.70;97.29
84878;BME280;75140;47.754;8.840;2024-03-06T05:59:50;96855.94;;;4.50;96.83
84878;BME280;75140;47.754;8.840;2024-03-06T06:02:15;96856.75;;;4.60;96.47
84878;BME280;75140;47.754;8.840;2024-03-06T06:04:47;96859.44;;;4.41;96.65
84878;BME280;75140;47.754;8.840;2024-03-06T06:07:12;96864.13;;;4.47;97.54
84878;BME280;75140;47.754;8.840;2024-03-06T06:09:38;96864.09;;;4.57;96.69
84878;BME280;75140;47.754;8.840;2024-03-06T06:12:04;96869.09;;;4.50;97.01
84878;BME280;75140;47.754;8.840;2024-03-06T06:14:29;96864.53;;;4.52;96.36
84878;BME280;75140;47.754;8.840;2024-03-06T06:16:56;96872.13;;;4.55;96.24
84878;BME280;75140;47.754;8.840;2024-03-06T06:19:21;96867.25;;;4.60;96.32
84878;BME280;75140;47.754;8.840;2024-03-06T06:21:52;96873.75;;;4.56;96.80
84878;BME280;75140;47.754;8.840;2024-03-06T06:24:18;96876.84;;;4.52;97.16
84878;BME280;75140;47.754;8.840;2024-03-06T06:26:43;96891.91;;;4.50;96.97
84878;BME280;75140;47.754;8.840;2024-03-06T06:29:08;96889.13;;;4.51;96.05
84878;BME280;75140;47.754;8.840;2024-03-06T06:31:34;96894.41;;;4.51;96.56
84878;BME280;75140;47.754;8.840;2024-03-06T06:34:00;96896.75;;;4.54;96.17
84878;BME280;75140;47.754;8.840;2024-03-06T06:36:25;96901.03;;;4.55;96.77
84878;BME280;75140;47.754;8.840;2024-03-06T06:38:51;96892.06;;;4.58;96.50
84878;BME280;75140;47.754;8.840;2024-03-06T06:41:17;96900.44;;;4.61;96.49
84878;BME280;75140;47.754;8.840;2024-03-06T06:43:42;96905.59;;;4.53;96.66
84878;BME280;75140;47.754;8.840;2024-03-06T06:46:08;96905.78;;;4.42;97.27
84878;BME280;75140;47.754;8.840;2024-03-06T06:48:34;96909.50;;;4.49;97.03
84878;BME280;75140;47.754;8.840;2024-03-06T06:51:00;96911.19;;;4.41;97.44
84878;BME280;75140;47.754;8.840;2024-03-06T06:53:27;96913.09;;;4.29;96.57
84878;BME280;75140;47.754;8.840;2024-03-06T06:55:53;96912.84;;;4.32;97.08
84878;BME280;75140;47.754;8.840;2024-03-06T06:58:18;96912.41;;;4.37;97.58
84878;BME280;75140;47.754;8.840;2024-03-06T07:00:45;96911.31;;;4.30;96.74
84878;BME280;75140;47.754;8.840;2024-03-06T07:03:10;96912.28;;;4.19;97.49
84878;BME280;75140;47.754;8.840;2024-03-06T07:05:36;96913.41;;;4.17;96.87
84878;BME280;75140;47.754;8.840;2024-03-06T07:08:01;96915.59;;;4.21;97.91
84878;BME280;75140;47.754;8.840;2024-03-06T07:10:26;96921.84;;;4.20;97.96
84878;BME280;75140;47.754;8.840;2024-03-06T07:12:52;96909.53;;;4.30;97.01
84878;BME280;75140;47.754;8.840;2024-03-06T07:15:18;96919.34;;;4.28;97.79
84878;BME280;75140;47.754;8.840;2024-03-06T07:17:43;96920.44;;;4.35;97.34
84878;BME280;75140;47.754;8.840;2024-03-06T07:20:09;96928.19;;;4.37;97.76
84878;BME280;75140;47.754;8.840;2024-03-06T07:22:35;96922.78;;;4.38;97.29
84878;BME280;75140;47.754;8.840;2024-03-06T07:25:01;96915.84;;;4.47;97.62
84878;BME280;75140;47.754;8.840;2024-03-06T07:27:35;96924.28;;;4.50;97.37
84878;BME280;75140;47.754;8.840;2024-03-06T07:30:01;96920.13;;;4.57;97.61
84878;BME280;75140;47.754;8.840;2024-03-06T07:32:27;96918.34;;;4.48;97.59
84878;BME280;75140;47.754;8.840;2024-03-06T07:34:52;96926.06;;;4.50;97.38
84878;BME280;75140;47.754;8.840;2024-03-06T07:37:17;96933.81;;;4.51;96.70
84878;BME280;75140;47.754;8.840;2024-03-06T07:39:43;96938.09;;;4.62;96.76
84878;BME280;75140;47.754;8.840;2024-03-06T07:42:08;96936.44;;;4.61;96.52
84878;BME280;75140;47.754;8.840;2024-03-06T07:44:36;96935.19;;;4.65;97.41
84878;BME280;75140;47.754;8.840;2024-03-06T07:47:02;96934.63;;;4.61;96.49
84878;BME280;75140;47.754;8.840;2024-03-06T07:49:27;96933.13;;;4.59;97.08
84878;BME280;75140;47.754;8.840;2024-03-06T07:51:53;96947.50;;;4.64;97.15
84878;BME280;75140;47.754;8.840;2024-03-06T07:54:18;96948.47;;;4.73;95.76
84878;BME280;75140;47.754;8.840;2024-03-06T07:56:44;96939.03;;;4.70;97.02
84878;BME280;75140;47.754;8.840;2024-03-06T07:59:09;96948.59;;;4.71;97.04
84878;BME280;75140;47.754;8.840;2024-03-06T08:01:37;96959.78;;;4.83;96.20
84878;BME280;75140;47.754;8.840;2024-03-06T08:04:03;96961.97;;;4.87;95.81
84878;BME280;75140;47.754;8.840;2024-03-06T08:06:28;96963.91;;;4.85;95.79
84878;BME280;75140;47.754;8.840;2024-03-06T08:08:54;96964.72;;;4.96;96.08
84878;BME280;75140;47.754;8.840;2024-03-06T08:11:20;96967.78;;;4.91;96.36
84878;BME280;75140;47.754;8.840;2024-03-06T08:13:48;96971.53;;;4.88;96.66
84878;BME280;75140;47.754;8.840;2024-03-06T08:16:14;96971.09;;;4.83;97.29
84878;BME280;75140;47.754;8.840;2024-03-06T08:18:39;96973.28;;;4.98;96.49
84878;BME280;75140;47.754;8.840;2024-03-06T08:21:04;96965.31;;;4.89;95.44
84878;BME280;75140;47.754;8.840;2024-03-06T08:23:31;96967.09;;;4.99;94.45
84878;BME280;75140;47.754;8.840;2024-03-06T08:25:57;96972.59;;;4.96;95.96
84878;BME280;75140;47.754;8.840;2024-03-06T08:28:22;96971.19;;;5.11;96.53
84878;BME280;75140;47.754;8.840;2024-03-06T08:30:48;96978.00;;;5.04;96.80
84878;BME280;75140;47.754;8.840;2024-03-06T08:33:13;96972.16;;;5.10;96.17
84878;BME280;75140;47.754;8.840;2024-03-06T08:35:39;96972.44;;;5.07;95.75
84878;BME280;75140;47.754;8.840;2024-03-06T08:38:04;96968.13;;;5.15;95.15
84878;BME280;75140;47.754;8.840;2024-03-06T08:40:31;96967.97;;;5.17;95.42
84878;BME280;75140;47.754;8.840;2024-03-06T08:42:56;96973.47;;;5.33;95.52
84878;BME280;75140;47.754;8.840;2024-03-06T08:45:22;96974.94;;;5.45;94.99
84878;BME280;75140;47.754;8.840;2024-03-06T08:47:50;96970.69;;;5.34;95.46
84878;BME280;75140;47.754;8.840;2024-03-06T08:50:19;96970.63;;;5.44;95.31
84878;BME280;75140;47.754;8.840;2024-03-06T08:52:44;96970.25;;;5.39;96.05
84878;BME280;75140;47.754;8.840;2024-03-06T08:55:10;96980.47;;;5.42;94.53
84878;BME280;75140;47.754;8.840;2024-03-06T08:57:37;96976.50;;;5.38;95.60
84878;BME280;75140;47.754;8.840;2024-03-06T09:00:03;96966.16;;;5.54;95.08
84878;BME280;75140;47.754;8.840;2024-03-06T09:02:29;96969.16;;;5.59;94.83
84878;BME280;75140;47.754;8.840;2024-03-06T09:04:55;96979.00;;;5.57;94.61
84878;BME280;75140;47.754;8.840;2024-03-06T09:07:21;96977.59;;;5.62;94.54
84878;BME280;75140;47.754;8.840;2024-03-06T09:09:50;96974.97;;;5.62;94.16
84878;BME280;75140;47.754;8.840;2024-03-06T09:12:18;96981.22;;;5.61;93.93
84878;BME280;75140;47.754;8.840;2024-03-06T09:14:44;96979.63;;;5.51;94.20
84878;BME280;75140;47.754;8.840;2024-03-06T09:17:10;96978.59;;;5.61;94.86
84878;BME280;75140;47.754;8.840;2024-03-06T09:19:38;96985.81;;;5.59;94.56
84878;BME280;75140;47.754;8.840;2024-03-06T09:22:04;96981.78;;;5.65;94.79
84878;BME280;75140;47.754;8.840;2024-03-06T09:24:29;96983.56;;;5.64;94.82
84878;BME280;75140;47.754;8.840;2024-03-06T09:26:54;96988.75;;;5.74;93.97
84878;BME280;75140;47.754;8.840;2024-03-06T09:29:20;96986.41;;;5.80;94.49
84878;BME280;75140;47.754;8.840;2024-03-06T09:31:46;96990.38;;;5.94;95.16
84878;BME280;75140;47.754;8.840;2024-03-06T09:34:12;96987.03;;;5.92;94.75
84878;BME280;75140;47.754;8.840;2024-03-06T09:36:47;96983.66;;;5.99;93.40
84878;BME280;75140;47.754;8.840;2024-03-06T09:39:14;96995.34;;;5.97;94.88
84878;BME280;75140;47.754;8.840;2024-03-06T09:41:45;96992.31;;;5.92;94.84
84878;BME280;75140;47.754;8.840;2024-03-06T09:44:11;96991.41;;;6.01;95.74
84878;BME280;75140;47.754;8.840;2024-03-06T09:46:37;97000.09;;;6.11;94.77
84878;BME280;75140;47.754;8.840;2024-03-06T09:49:03;96994.00;;;6.11;94.39
84878;BME280;75140;47.754;8.840;2024-03-06T09:51:29;96991.72;;;5.98;94.47
84878;BME280;75140;47.754;8.840;2024-03-06T09:53:55;96995.09;;;5.90;94.05
84878;BME280;75140;47.754;8.840;2024-03-06T09:56:21;96990.38;;;5.94;94.09
84878;BME280;75140;47.754;8.840;2024-03-06T09:58:47;96998.34;;;6.02;93.85
84878;BME280;75140;47.754;8.840;2024-03-06T10:01:15;97000.59;;;5.97;94.00
84878;BME280;75140;47.754;8.840;2024-03-06T10:03:42;97008.88;;;6.02;94.31
84878;BME280;75140;47.754;8.840;2024-03-06T10:06:08;97008.88;;;6.02;94.74
84878;BME280;75140;47.754;8.840;2024-03-06T10:08:34;97011.59;;;6.10;94.76
84878;BME280;75140;47.754;8.840;2024-03-06T10:11:00;97009.13;;;6.08;93.88
84878;BME280;75140;47.754;8.840;2024-03-06T10:13:26;97003.09;;;5.98;93.01
84878;BME280;75140;47.754;8.840;2024-03-06T10:15:59;97004.88;;;5.98;93.09
84878;BME280;75140;47.754;8.840;2024-03-06T10:18:30;97011.75;;;6.08;93.69
84878;BME280;75140;47.754;8.840;2024-03-06T10:20:56;97018.06;;;5.98;94.92
84878;BME280;75140;47.754;8.840;2024-03-06T10:23:22;97011.22;;;6.05;94.39
84878;BME280;75140;47.754;8.840;2024-03-06T10:25:48;97022.63;;;5.96;95.06
84878;BME280;75140;47.754;8.840;2024-03-06T10:28:23;97016.19;;;5.81;94.51
84878;BME280;75140;47.754;8.840;2024-03-06T10:30:50;97020.09;;;5.77;94.94
84878;BME280;75140;47.754;8.840;2024-03-06T10:33:17;97017.66;;;5.66;95.35
84878;BME280;75140;47.754;8.840;2024-03-06T10:35:47;97020.53;;;5.72;95.06
84878;BME280;75140;47.754;8.840;2024-03-06T10:38:19;97022.59;;;5.78;95.70
84878;BME280;75140;47.754;8.840;2024-03-06T10:40:45;97013.78;;;5.60;96.55
84878;BME280;75140;47.754;8.840;2024-03-06T10:43:11;97015.00;;;5.66;95.66
84878;BME280;75140;47.754;8.840;2024-03-06T10:45:47;97011.38;;;5.76;96.69
84878;BME280;75140;47.754;8.840;2024-03-06T10:48:14;97008.28;;;5.81;94.93
84878;BME280;75140;47.754;8.840;2024-03-06T10:50:41;97014.66;;;5.88;95.58
84878;BME280;75140;47.754;8.840;2024-03-06T10:53:14;97012.03;;;5.88;96.40
84878;BME280;75140;47.754;8.840;2024-03-06T10:55:43;97015.00;;;6.02;95.96
84878;BME280;75140;47.754;8.840;2024-03-06T10:58:12;97015.16;;;6.19;94.70
84878;BME280;75140;47.754;8.840;2024-03-06T11:00:40;97017.25;;;6.15;96.08
84878;BME280;75140;47.754;8.840;2024-03-06T11:03:09;97016.13;;;6.35;96.09
84878;BME280;75140;47.754;8.840;2024-03-06T11:05:41;97020.38;;;6.46;95.97
84878;BME280;75140;47.754;8.840;2024-03-06T11:08:08;97022.19;;;6.45;94.56
84878;BME280;75140;47.754;8.840;2024-03-06T11:10:36;97011.25;;;6.40;94.34
84878;BME280;75140;47.754;8.840;2024-03-06T11:13:03;97021.41;;;6.35;93.36
84878;BME280;75140;47.754;8.840;2024-03-06T11:15:30;97024.94;;;6.44;95.04
84878;BME280;75140;47.754;8.840;2024-03-06T11:17:55;97017.34;;;6.41;94.66
84878;BME280;75140;47.754;8.840;2024-03-06T11:20:21;97016.97;;;6.36;93.80
84878;BME280;75140;47.754;8.840;2024-03-06T11:33:15;97017.03;;;6.44;94.46
84878;BME280;75140;47.754;8.840;2024-03-06T11:39:06;97014.19;;;6.55;93.41
84878;BME280;75140;47.754;8.840;2024-03-06T11:41:47;97026.09;;;6.59;94.32
84878;BME280;75140;47.754;8.840;2024-03-06T11:44:15;97013.41;;;6.80;92.60
84878;BME280;75140;47.754;8.840;2024-03-06T11:46:48;97022.59;;;6.93;90.34
84878;BME280;75140;47.754;8.840;2024-03-06T11:49:18;97011.44;;;6.99;89.38
84878;BME280;75140;47.754;8.840;2024-03-06T11:51:48;97004.47;;;6.98;88.79
84878;BME280;75140;47.754;8.840;2024-03-06T11:54:14;97004.56;;;7.06;89.11
84878;BME280;75140;47.754;8.840;2024-03-06T11:56:40;97014.00;;;7.17;87.75
84878;BME280;75140;47.754;8.840;2024-03-06T11:59:06;96998.81;;;7.11;86.96
84878;BME280;75140;47.754;8.840;2024-03-06T12:01:33;96996.63;;;7.06;84.49
84878;BME280;75140;47.754;8.840;2024-03-06T12:03:58;97005.00;;;7.02;85.06
84878;BME280;75140;47.754;8.840;2024-03-06T12:06:26;97006.16;;;6.99;86.12
84878;BME280;75140;47.754;8.840;2024-03-06T12:08:53;97001.25;;;7.04;86.59
84878;BME280;75140;47.754;8.840;2024-03-06T12:11:18;97003.75;;;6.88;87.40
84878;BME280;75140;47.754;8.840;2024-03-06T12:13:46;97009.56;;;6.92;87.24
84878;BME280;75140;47.754;8.840;2024-03-06T12:16:14;97009.28;;;6.77;85.74
84878;BME280;75140;47.754;8.840;2024-03-06T12:18:39;97009.94;;;6.79;87.72
84878;BME280;75140;47.754;8.840;2024-03-06T12:21:05;97009.13;;;6.79;87.54
84878;BME280;75140;47.754;8.840;2024-03-06T12:23:30;97006.03;;;6.83;89.25
84878;BME280;75140;47.754;8.840;2024-03-06T12:26:09;97006.66;;;6.77;88.29
84878;BME280;75140;47.754;8.840;2024-03-06T12:28:36;97009.03;;;6.71;88.60
84878;BME280;75140;47.754;8.840;2024-03-06T12:31:06;97006.03;;;6.83;89.19
84878;BME280;75140;47.754;8.840;2024-03-06T12:33:33;97008.06;;;6.89;89.61
84878;BME280;75140;47.754;8.840;2024-03-06T12:38:28;97005.34;;;6.81;86.79
84878;BME280;75140;47.754;8.840;2024-03-06T12:40:54;97001.28;;;6.87;87.79
84878;BME280;75140;47.754;8.840;2024-03-06T12:43:20;97002.97;;;6.70;84.46
84878;BME280;75140;47.754;8.840;2024-03-06T12:45:45;97003.63;;;6.72;87.47
84878;BME280;75140;47.754;8.840;2024-03-06T12:48:10;97006.94;;;6.74;87.70
84878;BME280;75140;47.754;8.840;2024-03-06T12:50:38;97003.28;;;6.67;83.40
84878;BME280;75140;47.754;8.840;2024-03-06T12:53:03;97006.13;;;6.74;86.79
84878;BME280;75140;47.754;8.840;2024-03-06T12:55:30;97008.13;;;6.80;88.00
84878;BME280;75140;47.754;8.840;2024-03-06T12:57:57;96999.53;;;6.95;88.28
84878;BME280;75140;47.754;8.840;2024-03-06T13:00:22;97001.84;;;6.98;87.74
84878;BME280;75140;47.754;8.840;2024-03-06T13:02:49;97005.13;;;6.92;86.98
84878;BME280;75140;47.754;8.840;2024-03-06T13:05:15;97007.13;;;6.98;88.41
84878;BME280;75140;47.754;8.840;2024-03-06T13:07:42;97007.75;;;6.92;88.52
84878;BME280;75140;47.754;8.840;2024-03-06T13:10:08;97006.69;;;7.03;90.83
84878;BME280;75140;47.754;8.840;2024-03-06T13:12:38;97001.78;;;6.90;89.90
84878;BME280;75140;47.754;8.840;2024-03-06T13:15:04;97005.38;;;6.64;87.18
84878;BME280;75140;47.754;8.840;2024-03-06T13:17:30;97001.53;;;6.58;90.79
84878;BME280;75140;47.754;8.840;2024-03-06T13:19:55;97004.59;;;6.71;89.06
84878;BME280;75140;47.754;8.840;2024-03-06T13:22:21;97007.91;;;6.73;89.98